Time;durP1;ratioP1;P1;durP2;ratioP2;P2;SDS_P1;SDS_P2;PMS_P1;PMS_P2;Temp;Humidity;BMP_temperature;BMP_pressure;BME280_temperature;BME280_humidity;BME280_pressure;Samples;Min_cycle;Max_cycle;Signal;HPM_P1;HPM_P2
2021/10/07 00:02:09;;;;;;;;;;;19.20;48.50;;;;;;8233742;28;19910;-50
2021/10/07 00:06:11;;;;;;;;;;;19.20;48.50;;;;;;8233178;28;20367;-49
2021/10/07 00:10:11;;;;;;;;;;;19.20;48.50;;;;;;8234319;28;19919;-49
2021/10/07 00:14:12;;;;;;;;;;;19.20;48.50;;;;;;8233529;28;19967;-50
2021/10/07 00:18:13;;;;;;;;;;;19.20;48.50;;;;;;8232939;28;19926;-50
2021/10/07 00:22:13;;;;;;;;;;;19.20;48.50;;;;;;8233341;28;19977;-49
2021/10/07 00:26:13;;;;;;;;;;;19.20;48.50;;;;;;8233496;28;19918;-49
2021/10/07 00:30:20;;;;;;;;;;;19.20;48.50;;;;;;8232706;28;19914;-50
2021/10/07 00:42:58;;;;;;;;;;;19.20;48.50;;;;;;8237689;28;19976;-50
2021/10/07 00:47:02;;;;;;;;;;;19.20;48.50;;;;;;8233125;28;20009;-50
2021/10/07 00:51:03;;;;;;;;;;;19.20;48.50;;;;;;8233154;28;20367;-50
2021/10/07 00:55:03;;;;;;;;;;;19.20;48.50;;;;;;8233125;28;19926;-49
2021/10/07 00:59:04;;;;;;;;;;;19.20;48.60;;;;;;8232849;28;20450;-50
2021/10/07 01:03:04;;;;;;;;;;;19.20;48.60;;;;;;8232215;28;19914;-50
2021/10/07 01:07:05;;;;;;;;;;;19.20;48.60;;;;;;8233705;28;19914;-48
2021/10/07 01:11:06;;;;;;;;;;;19.20;48.60;;;;;;8231870;28;19914;-50
2021/10/07 01:15:07;;;;;;;;;;;19.10;48.50;;;;;;8232178;28;19921;-49
2021/10/07 01:19:07;;;;;;;;;;;19.10;48.60;;;;;;8232736;28;19914;-50
2021/10/07 01:23:08;;;;;;;;;;;19.10;48.60;;;;;;8233153;28;19969;-50
2021/10/07 01:27:09;;;;;;;;;;;19.10;48.60;;;;;;8232040;28;19993;-51
2021/10/07 01:31:09;;;;;;;;;;;19.10;48.60;;;;;;8232315;28;19960;-50
2021/10/07 01:35:10;;;;;;;;;;;19.10;48.60;;;;;;8232365;28;19910;-50
2021/10/07 01:39:10;;;;;;;;;;;19.10;48.60;;;;;;8231719;28;19918;-49
2021/10/07 01:43:11;;;;;;;;;;;19.10;48.60;;;;;;8235598;28;20013;-50
2021/10/07 01:47:11;;;;;;;;;;;19.10;48.60;;;;;;8237933;28;20367;-49
2021/10/07 01:51:11;;;;;;;;;;;19.10;48.60;;;;;;8237327;28;20013;-50
2021/10/07 01:55:12;;;;;;;;;;;19.10;48.60;;;;;;8237888;28;19918;-49
2021/10/07 01:59:12;;;;;;;;;;;19.10;48.60;;;;;;8238286;28;19918;-50
2021/10/07 02:03:13;;;;;;;;;;;19.10;48.60;;;;;;8237101;28;19918;-50
2021/10/07 02:07:13;;;;;;;;;;;19.10;48.60;;;;;;8237090;28;20279;-50
2021/10/07 02:11:14;;;;;;;;;;;19.10;48.60;;;;;;8237211;28;19914;-50
2021/10/07 02:15:15;;;;;;;;;;;19.10;48.60;;;;;;8237423;28;19914;-51
2021/10/07 02:19:15;;;;;;;;;;;19.10;48.60;;;;;;8236951;28;19921;-49
2021/10/07 02:23:15;;;;;;;;;;;19.10;48.60;;;;;;8236851;28;20347;-50
2021/10/07 02:27:16;;;;;;;;;;;19.10;48.60;;;;;;8236349;28;20347;-49
2021/10/07 02:31:16;;;;;;;;;;;19.10;48.60;;;;;;8236405;28;19929;-49
2021/10/07 02:35:17;;;;;;;;;;;19.10;48.60;;;;;;8237173;28;20260;-52
2021/10/07 02:39:17;;;;;;;;;;;19.00;48.60;;;;;;8235881;28;20390;-51
2021/10/07 02:43:18;;;;;;;;;;;19.10;49.20;;;;;;8235938;28;19914;-50
2021/10/07 02:47:18;;;;;;;;;;;19.00;48.60;;;;;;8236096;28;19914;-49
2021/10/07 02:51:19;;;;;;;;;;;19.10;48.70;;;;;;8236296;28;19910;-50
2021/10/07 02:55:19;;;;;;;;;;;19.00;48.60;;;;;;8234928;28;20326;-50
2021/10/07 02:59:20;;;;;;;;;;;19.00;48.70;;;;;;8235574;28;20020;-52
2021/10/07 03:03:20;;;;;;;;;;;19.00;48.60;;;;;;8234964;28;19914;-48
2021/10/07 03:07:21;;;;;;;;;;;19.00;49.20;;;;;;8236121;28;20364;-50
2021/10/07 03:11:21;;;;;;;;;;;19.00;49.20;;;;;;8235298;28;20005;-49
2021/10/07 03:15:22;;;;;;;;;;;19.00;48.70;;;;;;8234688;28;19914;-50
2021/10/07 03:19:22;;;;;;;;;;;19.00;48.70;;;;;;8235178;28;19916;-50
2021/10/07 03:23:23;;;;;;;;;;;19.00;48.70;;;;;;8235137;28;20029;-50
2021/10/07 03:27:23;;;;;;;;;;;19.00;48.70;;;;;;8235062;28;19995;-50
2021/10/07 03:31:23;;;;;;;;;;;19.00;48.70;;;;;;8234905;28;19918;-50
2021/10/07 03:35:24;;;;;;;;;;;19.00;48.70;;;;;;8234599;28;19960;-49
2021/10/07 03:39:24;;;;;;;;;;;19.00;48.80;;;;;;8233906;28;19973;-48
2021/10/07 03:43:25;;;;;;;;;;;19.00;48.80;;;;;;8235072;28;20383;-49
2021/10/07 03:47:25;;;;;;;;;;;19.00;48.80;;;;;;8234061;28;20363;-49
2021/10/07 03:51:26;;;;;;;;;;;19.00;48.80;;;;;;8233551;28;19914;-48
2021/10/07 03:55:26;;;;;;;;;;;19.00;48.70;;;;;;8234065;28;20004;-49
2021/10/07 03:59:27;;;;;;;;;;;19.00;48.70;;;;;;8234158;28;19917;-49
2021/10/07 04:03:27;;;;;;;;;;;19.00;48.80;;;;;;8232615;28;19964;-49
2021/10/07 04:07:28;;;;;;;;;;;19.00;48.70;;;;;;8233564;28;19993;-49
2021/10/07 04:11:28;;;;;;;;;;;19.00;48.80;;;;;;8233569;28;19937;-49
2021/10/07 04:15:28;;;;;;;;;;;19.00;48.80;;;;;;8233000;28;20013;-50
2021/10/07 04:19:29;;;;;;;;;;;19.10;48.80;;;;;;8234339;28;19917;-49
2021/10/07 04:23:29;;;;;;;;;;;19.00;48.80;;;;;;8233745;28;19921;-51
2021/10/07 04:27:31;;;;;;;;;;;19.00;48.80;;;;;;8232772;28;19977;-49
2021/10/07 04:31:32;;;;;;;;;;;19.00;48.80;;;;;;8233433;28;19914;-50
2021/10/07 04:35:32;;;;;;;;;;;19.00;48.80;;;;;;8233981;28;19964;-50
2021/10/07 04:39:33;;;;;;;;;;;19.00;48.80;;;;;;8232641;28;19914;-50
2021/10/07 04:43:33;;;;;;;;;;;19.00;48.80;;;;;;8233029;28;20295;-50
2021/10/07 04:47:34;;;;;;;;;;;19.00;48.80;;;;;;8232913;28;20492;-50
2021/10/07 04:51:34;;;;;;;;;;;19.00;48.80;;;;;;8232437;28;19910;-50
2021/10/07 04:55:35;;;;;;;;;;;19.00;48.80;;;;;;8233583;28;20046;-49
2021/10/07 04:59:35;;;;;;;;;;;19.00;48.80;;;;;;8232386;28;19961;-49
2021/10/07 05:03:36;;;;;;;;;;;19.00;48.80;;;;;;8232681;28;19914;-50
2021/10/07 05:07:39;;;;;;;;;;;19.00;48.80;;;;;;8232805;28;20284;-50
2021/10/07 05:11:39;;;;;;;;;;;19.00;48.80;;;;;;8233130;28;19917;-50
2021/10/07 05:15:40;;;;;;;;;;;19.00;48.80;;;;;;8232496;28;19918;-49
2021/10/07 05:19:40;;;;;;;;;;;19.00;48.80;;;;;;8237918;28;19924;-50
2021/10/07 05:23:41;;;;;;;;;;;19.00;48.80;;;;;;8238203;28;20038;-48
2021/10/07 05:27:41;;;;;;;;;;;19.00;48.80;;;;;;8239394;28;19910;-50
2021/10/07 05:31:42;;;;;;;;;;;19.00;48.80;;;;;;8238671;28;19914;-50
2021/10/07 05:35:42;;;;;;;;;;;19.00;48.80;;;;;;8237851;28;19918;-49
2021/10/07 05:39:42;;;;;;;;;;;19.00;48.80;;;;;;8238128;28;19937;-49
2021/10/07 05:43:43;;;;;;;;;;;19.00;48.80;;;;;;8238156;28;20052;-49
2021/10/07 05:47:43;;;;;;;;;;;19.00;48.80;;;;;;8238304;28;19946;-49
2021/10/07 05:51:44;;;;;;;;;;;19.00;48.80;;;;;;8237928;28;19925;-48
2021/10/07 05:55:44;;;;;;;;;;;19.00;48.80;;;;;;8237606;28;19922;-50
2021/10/07 05:59:45;;;;;;;;;;;19.00;48.80;;;;;;8237064;28;19956;-50
2021/10/07 06:03:45;;;;;;;;;;;19.00;48.80;;;;;;8238157;28;19918;-52
2021/10/07 06:07:46;;;;;;;;;;;18.90;48.80;;;;;;8237246;28;19914;-50
2021/10/07 06:11:46;;;;;;;;;;;19.00;48.80;;;;;;8237020;28;19917;-51
2021/10/07 06:15:48;;;;;;;;;;;19.00;48.80;;;;;;8236890;28;19973;-52
2021/10/07 06:19:54;;;;;;;;;;;19.00;48.80;;;;;;8237581;28;19910;-53
2021/10/07 06:23:54;;;;;;;;;;;19.00;48.80;;;;;;8238914;28;20371;-53
2021/10/07 06:27:55;;;;;;;;;;;19.00;48.80;;;;;;8236191;28;20020;-54
2021/10/07 06:31:55;;;;;;;;;;;19.00;48.80;;;;;;8236003;28;19941;-52
2021/10/07 06:35:58;;;;;;;;;;;19.00;48.80;;;;;;8236212;28;19922;-50
2021/10/07 06:39:58;;;;;;;;;;;19.00;48.80;;;;;;8237396;28;20004;-51
2021/10/07 06:43:59;;;;;;;;;;;19.00;48.80;;;;;;8236084;28;19921;-51
2021/10/07 06:47:59;;;;;;;;;;;19.00;48.90;;;;;;8235578;28;19942;-50
2021/10/07 06:52:00;;;;;;;;;;;19.00;48.90;;;;;;8236304;28;19918;-50
2021/10/07 06:56:00;;;;;;;;;;;19.00;48.90;;;;;;8236456;28;19918;-51
2021/10/07 07:00:01;;;;;;;;;;;19.00;48.90;;;;;;8235557;28;19918;-50
2021/10/07 07:04:01;;;;;;;;;;;19.00;48.80;;;;;;8235569;28;20000;-52
2021/10/07 07:08:02;;;;;;;;;;;19.00;48.80;;;;;;8235541;28;19921;-51
2021/10/07 07:12:02;;;;;;;;;;;19.00;48.90;;;;;;8234144;28;19917;-51
2021/10/07 07:16:03;;;;;;;;;;;19.00;48.90;;;;;;8236104;28;19918;-53
2021/10/07 07:20:04;;;;;;;;;;;19.00;48.90;;;;;;8235211;28;19921;-51
2021/10/07 07:24:04;;;;;;;;;;;19.00;48.80;;;;;;8234444;28;19961;-52
2021/10/07 07:28:05;;;;;;;;;;;19.00;48.80;;;;;;8234768;28;19922;-50
2021/10/07 07:32:06;;;;;;;;;;;19.00;48.90;;;;;;8235391;28;19914;-50
2021/10/07 07:36:06;;;;;;;;;;;19.00;48.90;;;;;;8233890;28;20267;-49
2021/10/07 07:40:07;;;;;;;;;;;19.00;48.80;;;;;;8234296;28;20410;-51
2021/10/07 07:44:07;;;;;;;;;;;19.00;48.80;;;;;;8234338;28;19918;-50
2021/10/07 07:48:08;;;;;;;;;;;19.00;48.80;;;;;;8234433;28;19910;-50
2021/10/07 07:52:08;;;;;;;;;;;19.00;48.80;;;;;;8234043;28;19957;-50
2021/10/07 07:56:09;;;;;;;;;;;19.00;48.80;;;;;;8233891;28;20005;-53
2021/10/07 08:00:10;;;;;;;;;;;19.00;48.80;;;;;;8233511;28;19977;-50
2021/10/07 08:04:10;;;;;;;;;;;19.00;48.80;;;;;;8233598;28;19922;-53
2021/10/07 08:08:11;;;;;;;;;;;19.00;48.80;;;;;;8234555;28;19910;-51
2021/10/07 08:12:12;;;;;;;;;;;19.00;48.80;;;;;;8233060;28;20264;-51
2021/10/07 08:16:13;;;;;;;;;;;19.00;48.80;;;;;;8233732;28;20302;-49
2021/10/07 08:20:14;;;;;;;;;;;19.00;48.80;;;;;;8233470;28;19914;-51
2021/10/07 08:24:16;;;;;;;;;;;19.10;48.80;;;;;;8234099;28;20398;-50
2021/10/07 08:28:17;;;;;;;;;;;19.10;48.80;;;;;;8233214;28;19920;-50
2021/10/07 08:32:17;;;;;;;;;;;19.10;48.80;;;;;;8233330;28;20291;-51
2021/10/07 08:36:18;;;;;;;;;;;19.10;48.80;;;;;;8232661;28;19990;-51
2021/10/07 08:40:18;;;;;;;;;;;19.10;48.80;;;;;;8233271;28;20291;-50
2021/10/07 08:44:19;;;;;;;;;;;19.10;48.80;;;;;;8233574;28;20001;-51
2021/10/07 08:48:19;;;;;;;;;;;19.10;48.70;;;;;;8232477;28;20359;-50
2021/10/07 08:52:20;;;;;;;;;;;19.20;48.80;;;;;;8234800;28;20004;-50
2021/10/07 08:56:21;;;;;;;;;;;19.10;48.70;;;;;;8239505;28;19929;-50
2021/10/07 09:00:21;;;;;;;;;;;19.10;48.80;;;;;;8239847;28;19975;-52
2021/10/07 09:04:23;;;;;;;;;;;19.10;48.70;;;;;;8239248;28;19961;-51
2021/10/07 09:08:23;;;;;;;;;;;19.20;48.80;;;;;;8239153;28;19921;-50
2021/10/07 09:12:24;;;;;;;;;;;19.20;48.70;;;;;;8238539;28;20013;-49
2021/10/07 09:16:26;;;;;;;;;;;19.20;48.70;;;;;;8239252;28;19925;-50
2021/10/07 09:20:34;;;;;;;;;;;19.20;48.70;;;;;;8238718;28;19914;-51
2021/10/07 09:24:37;;;;;;;;;;;19.20;48.70;;;;;;8238229;28;19937;-50
2021/10/07 09:28:57;;;;;;;;;;;19.20;48.70;;;;;;8238566;28;19918;-50
2021/10/07 09:33:01;;;;;;;;;;;19.20;48.70;;;;;;8237919;28;19914;-50
2021/10/07 09:37:14;;;;;;;;;;;19.20;49.20;;;;;;8239246;28;19918;-50
2021/10/07 09:41:16;;;;;;;;;;;19.20;48.60;;;;;;8238129;28;19950;-50
2021/10/07 09:45:20;;;;;;;;;;;19.20;48.60;;;;;;8237758;28;19925;-50
2021/10/07 09:49:33;;;;;;;;;;;19.20;48.60;;;;;;8237785;28;19914;-49
2021/10/07 09:53:34;;;;;;;;;;;19.30;48.70;;;;;;8238067;28;19918;-49
2021/10/07 09:57:46;;;;;;;;;;;19.30;48.70;;;;;;8237637;28;20286;-51
2021/10/07 10:01:47;;;;;;;;;;;19.30;48.60;;;;;;8237222;28;19918;-50
2021/10/07 10:05:48;;;;;;;;;;;19.30;48.60;;;;;;8236593;28;19937;-53
2021/10/07 10:09:48;;;;;;;;;;;19.30;48.60;;;;;;8236443;28;19914;-50
2021/10/07 10:13:49;;;;;;;;;;;19.30;48.60;;;;;;8237866;28;19917;-50
2021/10/07 10:17:51;;;;;;;;;;;19.30;48.60;;;;;;8236724;28;19930;-51
2021/10/07 10:21:54;;;;;;;;;;;19.30;48.60;;;;;;8236760;28;19914;-50
2021/10/07 10:25:59;;;;;;;;;;;19.20;48.60;;;;;;8236588;28;19914;-53
2021/10/07 10:30:26;;;;;;;;;;;19.30;48.60;;;;;;8236284;28;19921;-50
2021/10/07 10:34:36;;;;;;;;;;;19.30;48.60;;;;;;8236824;28;19913;-50
2021/10/07 10:38:39;;;;;;;;;;;19.20;48.60;;;;;;8235775;28;19973;-50
2021/10/07 10:42:40;;;;;;;;;;;19.20;48.60;;;;;;8235995;28;20402;-53
2021/10/07 10:46:40;;;;;;;;;;;19.30;48.60;;;;;;8236481;28;19918;-49
2021/10/07 10:50:41;;;;;;;;;;;19.20;48.60;;;;;;8235518;28;19917;-51
2021/10/07 10:54:48;;;;;;;;;;;19.20;48.60;;;;;;8237190;28;19924;-50
2021/10/07 10:58:52;;;;;;;;;;;19.30;48.60;;;;;;8235834;28;19922;-53
2021/10/07 11:02:54;;;;;;;;;;;19.20;48.60;;;;;;8235530;28;19914;-50
2021/10/07 11:07:13;;;;;;;;;;;19.30;48.60;;;;;;8235610;28;19917;-52
2021/10/07 11:11:28;;;;;;;;;;;19.30;48.60;;;;;;8235379;28;19925;-50
2021/10/07 11:15:29;;;;;;;;;;;19.30;48.60;;;;;;8234999;28;19914;-49
2021/10/07 11:19:31;;;;;;;;;;;19.30;48.60;;;;;;8234916;28;19922;-50
2021/10/07 11:23:33;;;;;;;;;;;19.30;48.60;;;;;;8235030;28;20378;-50
2021/10/07 11:27:38;;;;;;;;;;;19.20;48.60;;;;;;8234265;28;20280;-49
2021/10/07 11:31:43;;;;;;;;;;;19.30;48.60;;;;;;8235686;28;19914;-48
2021/10/07 11:35:44;;;;;;;;;;;19.30;48.60;;;;;;8234443;28;19914;-50
2021/10/07 11:39:44;;;;;;;;;;;19.30;48.60;;;;;;8234452;28;19914;-49
2021/10/07 11:43:45;;;;;;;;;;;19.30;48.60;;;;;;8234361;28;20381;-49
2021/10/07 11:47:46;;;;;;;;;;;19.30;48.60;;;;;;8233795;28;20154;-49
2021/10/07 11:51:46;;;;;;;;;;;19.30;48.60;;;;;;8234635;28;19973;-48
2021/10/07 11:55:47;;;;;;;;;;;19.30;48.50;;;;;;8233961;28;19946;-49
2021/10/07 11:59:48;;;;;;;;;;;19.30;48.50;;;;;;8233554;28;19997;-50
2021/10/07 12:03:48;;;;;;;;;;;19.30;48.50;;;;;;8233727;28;19961;-49
2021/10/07 12:08:18;;;;;;;;;;;19.30;48.50;;;;;;8234388;28;20404;-51
2021/10/07 12:12:19;;;;;;;;;;;19.30;48.50;;;;;;8233269;28;20382;-50
2021/10/07 12:16:21;;;;;;;;;;;19.30;48.50;;;;;;8233353;28;19926;-51
2021/10/07 12:20:22;;;;;;;;;;;19.40;48.50;;;;;;8233568;28;20311;-52
2021/10/07 12:24:23;;;;;;;;;;;19.40;48.40;;;;;;8233141;28;20020;-50
2021/10/07 12:28:24;;;;;;;;;;;19.40;48.40;;;;;;8233069;28;19910;-50
2021/10/07 12:32:24;;;;;;;;;;;19.40;48.40;;;;;;8233143;28;20291;-49
2021/10/07 12:36:35;;;;;;;;;;;19.40;48.30;;;;;;8232805;28;19922;-49
2021/10/07 12:40:36;;;;;;;;;;;19.40;48.40;;;;;;8233321;28;19973;-49
2021/10/07 12:44:38;;;;;;;;;;;19.40;48.40;;;;;;8233252;28;19910;-48
2021/10/07 12:49:04;;;;;;;;;;;19.40;48.30;;;;;;8232737;28;19918;-50
2021/10/07 12:53:05;;;;;;;;;;;19.50;48.30;;;;;;8232855;28;19918;-49
2021/10/07 12:57:05;;;;;;;;;;;19.40;48.30;;;;;;8232323;28;20385;-50
2021/10/07 13:01:17;;;;;;;;;;;19.40;48.30;;;;;;8232630;28;20421;-49
2021/10/07 13:05:18;;;;;;;;;;;19.40;48.30;;;;;;8236865;28;19917;-51
2021/10/07 13:09:19;;;;;;;;;;;19.40;48.20;;;;;;8231379;28;19914;-50
2021/10/07 13:13:20;;;;;;;;;;;19.50;48.30;;;;;;8232691;28;19921;-52
2021/10/07 13:17:20;;;;;;;;;;;19.40;48.30;;;;;;8232592;28;19929;-52
2021/10/07 13:21:21;;;;;;;;;;;19.40;48.20;;;;;;8232108;28;19910;-51
2021/10/07 13:25:23;;;;;;;;;;;19.50;48.20;;;;;;8233121;28;19910;-50
2021/10/07 13:29:23;;;;;;;;;;;19.50;48.20;;;;;;8232428;28;19914;-50
2021/10/07 13:33:25;;;;;;;;;;;19.50;48.30;;;;;;8231917;28;19961;-52
2021/10/07 13:37:25;;;;;;;;;;;19.50;48.20;;;;;;8232389;28;19958;-51
2021/10/07 13:41:27;;;;;;;;;;;19.50;48.20;;;;;;8238934;28;19921;-50
2021/10/07 13:45:28;;;;;;;;;;;19.50;48.20;;;;;;8237553;28;19914;-49
2021/10/07 13:49:28;;;;;;;;;;;19.50;48.20;;;;;;8237863;28;20415;-52
2021/10/07 13:53:29;;;;;;;;;;;19.50;48.20;;;;;;8238054;28;19918;-52
2021/10/07 13:57:31;;;;;;;;;;;19.50;48.20;;;;;;8237436;28;20265;-52
2021/10/07 14:01:32;;;;;;;;;;;19.50;48.20;;;;;;8237945;28;19917;-49
2021/10/07 14:05:35;;;;;;;;;;;19.50;48.20;;;;;;8237237;28;20037;-49
2021/10/07 14:09:36;;;;;;;;;;;19.50;48.20;;;;;;8251885;28;19953;-49
2021/10/07 14:13:37;;;;;;;;;;;19.50;48.20;;;;;;8236910;28;19921;-49
2021/10/07 14:17:37;;;;;;;;;;;19.50;48.20;;;;;;8237188;28;19997;-50
2021/10/07 14:21:38;;;;;;;;;;;19.50;48.10;;;;;;8236319;28;19918;-49
2021/10/07 14:25:38;;;;;;;;;;;19.50;48.10;;;;;;8236757;28;19918;-53
2021/10/07 14:29:42;;;;;;;;;;;19.50;48.20;;;;;;8236038;28;19914;-49
2021/10/07 14:33:42;;;;;;;;;;;19.50;48.10;;;;;;8237433;28;19914;-51
2021/10/07 14:37:43;;;;;;;;;;;19.50;48.10;;;;;;8236068;28;19929;-49
2021/10/07 14:41:43;;;;;;;;;;;19.50;48.10;;;;;;8235873;28;19914;-50
2021/10/07 14:45:44;;;;;;;;;;;19.50;48.10;;;;;;8236166;28;19914;-49
2021/10/07 14:49:44;;;;;;;;;;;19.50;48.10;;;;;;8234764;28;20307;-50
2021/10/07 14:53:45;;;;;;;;;;;19.50;48.10;;;;;;8235809;28;19961;-48
2021/10/07 14:57:46;;;;;;;;;;;19.50;48.10;;;;;;8235320;28;20451;-49
2021/10/07 15:01:48;;;;;;;;;;;19.50;48.10;;;;;;8234996;28;19973;-47
2021/10/07 15:05:49;;;;;;;;;;;19.50;48.10;;;;;;8234410;28;20014;-49
2021/10/07 15:09:49;;;;;;;;;;;19.50;48.10;;;;;;8235863;28;19910;-50
2021/10/07 15:13:50;;;;;;;;;;;19.50;48.10;;;;;;8235061;28;19993;-51
2021/10/07 15:17:50;;;;;;;;;;;19.50;48.10;;;;;;8234623;28;20273;-51
2021/10/07 15:21:51;;;;;;;;;;;19.50;48.10;;;;;;8234824;28;19926;-50
2021/10/07 15:25:51;;;;;;;;;;;19.50;48.00;;;;;;8235585;28;19910;-48
2021/10/07 15:29:51;;;;;;;;;;;19.50;48.10;;;;;;8234198;28;20348;-49
2021/10/07 15:33:52;;;;;;;;;;;19.50;48.10;;;;;;8234749;28;19914;-50
2021/10/07 15:37:52;;;;;;;;;;;19.50;48.10;;;;;;8234627;28;19997;-49
2021/10/07 15:41:53;;;;;;;;;;;19.50;48.10;;;;;;8233700;28;19960;-49
2021/10/07 15:45:54;;;;;;;;;;;19.50;48.10;;;;;;8234842;28;19910;-51
2021/10/07 15:49:54;;;;;;;;;;;19.50;48.10;;;;;;8234309;28;20419;-48
2021/10/07 15:53:55;;;;;;;;;;;19.50;48.10;;;;;;8230563;28;19933;-48
2021/10/07 15:57:55;;;;;;;;;;;19.50;48.10;;;;;;8231944;28;19922;-48
2021/10/07 16:01:56;;;;;;;;;;;19.50;48.10;;;;;;8235613;28;19922;-49
2021/10/07 16:05:57;;;;;;;;;;;19.50;48.10;;;;;;8230847;28;19933;-48
2021/10/07 16:09:58;;;;;;;;;;;19.50;48.10;;;;;;8232120;28;19930;-49
2021/10/07 16:14:00;;;;;;;;;;;19.50;48.10;;;;;;8233382;28;19958;-49
2021/10/07 16:18:00;;;;;;;;;;;19.50;48.10;;;;;;8255653;28;19976;-48
2021/10/07 16:22:01;;;;;;;;;;;19.50;48.10;;;;;;8241547;28;20422;-49
2021/10/07 16:26:01;;;;;;;;;;;19.50;48.10;;;;;;8247174;28;19914;-46
2021/10/07 16:30:03;;;;;;;;;;;19.50;48.10;;;;;;8237193;28;20279;-50
2021/10/07 16:34:03;;;;;;;;;;;19.50;48.10;;;;;;8243678;28;19911;-52
2021/10/07 16:38:04;;;;;;;;;;;19.50;48.10;;;;;;8233672;28;19929;-49
2021/10/07 16:42:04;;;;;;;;;;;19.50;48.10;;;;;;8232219;28;19920;-49
2021/10/07 16:46:04;;;;;;;;;;;19.50;48.10;;;;;;8246707;28;19914;-50
2021/10/07 16:50:05;;;;;;;;;;;19.50;48.10;;;;;;8256949;28;20367;-50
2021/10/07 16:54:06;;;;;;;;;;;19.40;48.00;;;;;;8232370;28;20359;-48
2021/10/07 16:58:07;;;;;;;;;;;19.50;48.10;;;;;;8232314;28;20030;-52
2021/10/07 17:02:07;;;;;;;;;;;19.40;48.10;;;;;;8232321;28;19930;-49
2021/10/07 17:06:08;;;;;;;;;;;19.40;48.00;;;;;;8231492;28;19914;-49
2021/10/07 17:10:09;;;;;;;;;;;19.40;48.00;;;;;;8232561;28;20371;-50
2021/10/07 17:14:10;;;;;;;;;;;19.40;48.00;;;;;;8236227;28;19914;-50
2021/10/07 17:18:11;;;;;;;;;;;19.40;48.00;;;;;;8238283;28;20371;-49
2021/10/07 17:22:12;;;;;;;;;;;19.40;48.00;;;;;;8238644;28;20009;-50
2021/10/07 17:26:12;;;;;;;;;;;19.40;48.00;;;;;;8237832;28;19910;-50
2021/10/07 17:30:14;;;;;;;;;;;19.40;48.00;;;;;;8238393;28;19914;-49
2021/10/07 17:34:14;;;;;;;;;;;19.40;48.00;;;;;;8237966;28;19918;-49
2021/10/07 17:38:14;;;;;;;;;;;19.40;48.00;;;;;;8237648;28;19940;-49
2021/10/07 17:42:15;;;;;;;;;;;19.40;48.00;;;;;;8237504;28;20423;-48
2021/10/07 17:46:16;;;;;;;;;;;19.40;48.00;;;;;;8238208;28;20020;-49
2021/10/07 17:50:17;;;;;;;;;;;19.40;48.00;;;;;;8237929;28;19918;-50
2021/10/07 17:54:17;;;;;;;;;;;19.40;48.00;;;;;;8237123;28;19929;-49
2021/10/07 17:58:18;;;;;;;;;;;19.40;48.10;;;;;;8237536;28;19972;-49
2021/10/07 18:02:18;;;;;;;;;;;19.40;48.00;;;;;;8237311;28;20000;-50
2021/10/07 18:06:20;;;;;;;;;;;19.40;48.60;;;;;;8237706;28;19910;-49
2021/10/07 18:10:21;;;;;;;;;;;19.40;48.00;;;;;;8236639;28;19925;-51
2021/10/07 18:14:21;;;;;;;;;;;19.40;48.00;;;;;;8236976;28;20286;-50
2021/10/07 18:18:22;;;;;;;;;;;19.40;48.00;;;;;;8235932;28;20021;-50
2021/10/07 18:22:22;;;;;;;;;;;19.40;48.10;;;;;;8249540;28;19961;-49
2021/10/07 18:26:23;;;;;;;;;;;19.40;48.10;;;;;;8239027;28;20390;-52
2021/10/07 18:30:24;;;;;;;;;;;19.40;48.10;;;;;;8236253;28;19914;-51
2021/10/07 18:34:24;;;;;;;;;;;19.40;48.20;;;;;;8238281;28;19913;-49
2021/10/07 18:38:25;;;;;;;;;;;19.40;48.10;;;;;;8247589;28;19961;-49
2021/10/07 18:42:25;;;;;;;;;;;19.40;48.10;;;;;;8265410;28;19913;-51
2021/10/07 18:46:25;;;;;;;;;;;19.40;48.10;;;;;;8239329;28;20392;-49
2021/10/07 18:50:26;;;;;;;;;;;19.40;48.10;;;;;;8235934;28;19957;-49
2021/10/07 18:54:26;;;;;;;;;;;19.40;48.10;;;;;;8235977;28;19928;-49
2021/10/07 18:58:27;;;;;;;;;;;19.40;48.10;;;;;;8263767;28;19925;-50
2021/10/07 19:02:27;;;;;;;;;;;19.40;48.10;;;;;;8240665;28;19921;-49
2021/10/07 19:06:31;;;;;;;;;;;19.40;48.10;;;;;;8234733;28;19914;-49
2021/10/07 19:10:31;;;;;;;;;;;19.40;48.00;;;;;;8234573;28;19930;-50
2021/10/07 19:14:32;;;;;;;;;;;19.40;48.00;;;;;;8235998;28;20393;-49
2021/10/07 19:18:32;;;;;;;;;;;19.40;48.00;;;;;;8234527;28;19929;-49
2021/10/07 19:22:33;;;;;;;;;;;19.40;48.00;;;;;;8238335;28;19950;-49
2021/10/07 19:26:34;;;;;;;;;;;19.40;48.00;;;;;;8250112;28;20060;-48
2021/10/07 19:30:34;;;;;;;;;;;19.40;48.00;;;;;;8234671;28;19910;-48
2021/10/07 19:34:34;;;;;;;;;;;19.40;48.00;;;;;;8235371;28;19914;-48
2021/10/07 19:38:35;;;;;;;;;;;19.40;48.00;;;;;;8233944;28;19929;-50
2021/10/07 19:42:36;;;;;;;;;;;19.40;48.00;;;;;;8234480;28;19921;-49
2021/10/07 19:46:36;;;;;;;;;;;19.40;48.00;;;;;;8234425;28;19914;-49
2021/10/07 19:50:36;;;;;;;;;;;19.40;48.00;;;;;;8234597;28;19918;-47
2021/10/07 19:54:37;;;;;;;;;;;19.40;48.00;;;;;;8234537;28;19918;-49
2021/10/07 19:58:37;;;;;;;;;;;19.30;47.90;;;;;;8233883;28;19922;-49
2021/10/07 20:02:38;;;;;;;;;;;19.40;48.00;;;;;;8233736;28;20020;-49
2021/10/07 20:06:39;;;;;;;;;;;19.30;47.90;;;;;;8235026;28;20414;-49
2021/10/07 20:10:39;;;;;;;;;;;19.40;48.00;;;;;;8233842;28;19953;-49
2021/10/07 20:14:40;;;;;;;;;;;19.30;48.00;;;;;;8233249;28;19914;-49
2021/10/07 20:18:41;;;;;;;;;;;19.30;47.90;;;;;;8233702;28;19926;-50
2021/10/07 20:22:41;;;;;;;;;;;19.30;47.90;;;;;;8233575;28;19920;-48
2021/10/07 20:26:42;;;;;;;;;;;19.40;48.00;;;;;;8233629;28;19914;-49
2021/10/07 20:30:42;;;;;;;;;;;19.30;47.90;;;;;;8233683;28;20032;-48
2021/10/07 20:34:56;;;;;;;;;;;19.40;47.90;;;;;;8233399;28;19935;-48
2021/10/07 20:38:58;;;;;;;;;;;19.30;48.00;;;;;;8232697;28;19945;-49
2021/10/07 20:42:59;;;;;;;;;;;19.30;48.00;;;;;;8234103;28;19997;-49
2021/10/07 20:47:00;;;;;;;;;;;19.40;47.90;;;;;;8233002;28;19914;-49
2021/10/07 20:51:00;;;;;;;;;;;19.40;47.90;;;;;;8238974;28;19922;-48
2021/10/07 20:55:01;;;;;;;;;;;19.30;47.90;;;;;;8239858;28;20008;-48
2021/10/07 20:59:02;;;;;;;;;;;19.30;47.90;;;;;;8239318;28;19918;-47
2021/10/07 21:03:02;;;;;;;;;;;19.40;47.90;;;;;;8239881;28;20348;-49
2021/10/07 21:07:02;;;;;;;;;;;19.30;47.80;;;;;;8239226;28;19914;-48
2021/10/07 21:11:03;;;;;;;;;;;19.40;47.80;;;;;;8239224;28;19956;-49
2021/10/07 21:15:05;;;;;;;;;;;19.40;47.70;;;;;;8238659;28;19914;-48
2021/10/07 21:19:05;;;;;;;;;;;19.40;47.80;;;;;;8239301;28;19965;-49
2021/10/07 21:23:05;;;;;;;;;;;19.30;47.70;;;;;;8238904;28;20368;-49
2021/10/07 21:27:06;;;;;;;;;;;19.40;47.80;;;;;;8238152;28;19941;-48
2021/10/07 21:31:06;;;;;;;;;;;19.40;47.70;;;;;;8238396;28;19914;-48
2021/10/07 21:35:08;;;;;;;;;;;19.40;47.70;;;;;;8237951;28;20291;-49
2021/10/07 21:39:09;;;;;;;;;;;19.40;47.70;;;;;;8237908;28;19922;-48
2021/10/07 21:43:09;;;;;;;;;;;19.30;47.70;;;;;;8238076;28;19937;-48
2021/10/07 21:47:10;;;;;;;;;;;19.40;47.70;;;;;;8238366;28;19909;-48
2021/10/07 21:51:10;;;;;;;;;;;19.30;47.70;;;;;;8237492;28;19920;-49
2021/10/07 21:55:11;;;;;;;;;;;19.30;47.70;;;;;;8239151;28;19918;-48
2021/10/07 21:59:11;;;;;;;;;;;19.30;47.70;;;;;;8237417;28;19933;-49
2021/10/07 22:03:12;;;;;;;;;;;19.30;47.70;;;;;;8236452;28;19914;-50
2021/10/07 22:07:12;;;;;;;;;;;19.30;47.70;;;;;;8237144;28;19965;-50
2021/10/07 22:11:13;;;;;;;;;;;19.30;47.70;;;;;;8238195;28;19941;-49
2021/10/07 22:15:13;;;;;;;;;;;19.30;47.70;;;;;;8236940;28;20523;-50
2021/10/07 22:19:14;;;;;;;;;;;19.30;47.70;;;;;;8237062;28;19933;-48
2021/10/07 22:23:14;;;;;;;;;;;19.30;47.70;;;;;;8236825;28;19946;-51
2021/10/07 22:27:15;;;;;;;;;;;19.30;47.70;;;;;;8236447;28;19936;-49
2021/10/07 22:31:15;;;;;;;;;;;19.30;47.70;;;;;;8237004;28;20268;-52
2021/10/07 22:35:16;;;;;;;;;;;19.30;47.70;;;;;;8236851;28;19914;-50
2021/10/07 22:39:16;;;;;;;;;;;19.20;47.60;;;;;;8235793;28;19976;-48
2021/10/07 22:43:16;;;;;;;;;;;19.30;47.70;;;;;;8236604;28;20302;-49
2021/10/07 22:47:17;;;;;;;;;;;19.20;47.70;;;;;;8236847;28;19925;-49
2021/10/07 22:51:17;;;;;;;;;;;19.20;47.60;;;;;;8235747;28;19914;-49
2021/10/07 22:55:18;;;;;;;;;;;19.20;47.60;;;;;;8236490;28;19918;-52
2021/10/07 22:59:18;;;;;;;;;;;19.20;47.60;;;;;;8235745;28;19925;-49
2021/10/07 23:03:19;;;;;;;;;;;19.20;47.50;;;;;;8235883;28;20001;-49
2021/10/07 23:07:19;;;;;;;;;;;19.20;47.60;;;;;;8235568;28;20372;-51
2021/10/07 23:11:20;;;;;;;;;;;19.20;47.60;;;;;;8234589;28;19910;-49
2021/10/07 23:15:20;;;;;;;;;;;19.20;47.60;;;;;;8235129;28;19914;-50
2021/10/07 23:19:21;;;;;;;;;;;19.20;47.60;;;;;;8235300;28;19918;-51
2021/10/07 23:23:21;;;;;;;;;;;19.20;47.60;;;;;;8235783;28;19923;-52
2021/10/07 23:27:22;;;;;;;;;;;19.20;47.60;;;;;;8234490;28;20261;-50
2021/10/07 23:31:22;;;;;;;;;;;19.20;47.60;;;;;;8235159;28;19922;-50